Time;durP1;ratioP1;P1;durP2;ratioP2;P2;SDS_P1;SDS_P2;PMS_P1;PMS_P2;Temp;Humidity;BMP_temperature;BMP_pressure;BME280_temperature;BME280_humidity;BME280_pressure;Samples;Min_cycle;Max_cycle;Signal;HPM_P1;HPM_P2
2022/04/27 00:00:36;;;;;;;64.47;30.25;;;4.10;99.90;;;;;;5055359;28;20032;-72
2022/04/27 00:03:05;;;;;;;62.40;31.33;;;4.20;99.90;;;;;;5055511;28;20394;-74
2022/04/27 00:05:33;;;;;;;62.85;30.95;;;4.20;99.90;;;;;;5055407;28;20427;-74
2022/04/27 00:08:03;;;;;;;63.50;33.28;;;4.30;99.90;;;;;;5055289;28;20552;-74
2022/04/27 00:10:31;;;;;;;60.83;34.38;;;4.30;99.90;;;;;;5055520;28;20382;-74
2022/04/27 00:12:59;;;;;;;57.65;32.13;;;4.30;99.90;;;;;;5053736;28;20037;-73
2022/04/27 00:16:08;;;;;;;57.50;31.30;;;4.40;99.90;;;;;;5054943;28;20382;-74
2022/04/27 00:18:33;;;;;;;60.38;29.65;;;4.40;99.90;;;;;;5053689;28;20029;-72
2022/04/27 00:21:02;;;;;;;54.75;29.20;;;4.40;99.90;;;;;;5054716;28;20020;-73
2022/04/27 00:23:32;;;;;;;47.70;26.70;;;4.40;99.90;;;;;;5054916;28;20051;-74
2022/04/27 00:25:58;;;;;;;58.33;29.67;;;4.50;99.90;;;;;;5053752;28;20029;-74
2022/04/27 00:28:24;;;;;;;56.67;29.35;;;4.50;99.90;;;;;;5053625;28;20445;-74
2022/04/27 00:30:50;;;;;;;67.70;35.35;;;4.50;99.90;;;;;;5053529;28;20048;-74
2022/04/27 00:33:17;;;;;;;84.57;39.45;;;4.50;99.90;;;;;;5054567;28;20104;-73
2022/04/27 00:35:43;;;;;;;79.30;39.03;;;4.50;99.90;;;;;;5036970;28;20467;-72
2022/04/27 00:38:10;;;;;;;91.57;42.53;;;4.40;99.90;;;;;;5054405;28;20025;-73
2022/04/27 00:40:37;;;;;;;89.63;41.67;;;4.40;99.90;;;;;;5054657;28;20017;-72
2022/04/27 00:43:03;;;;;;;83.78;39.78;;;4.40;99.90;;;;;;5054783;28;20029;-74
2022/04/27 00:45:29;;;;;;;76.55;34.78;;;4.40;99.90;;;;;;5054604;28;20078;-74
2022/04/27 00:47:56;;;;;;;72.93;32.85;;;4.40;99.90;;;;;;5054239;28;20535;-73
2022/04/27 00:50:24;;;;;;;61.92;29.98;;;4.30;99.90;;;;;;5053188;28;20509;-74
2022/04/27 00:52:51;;;;;;;61.97;31.13;;;4.30;99.90;;;;;;5054314;28;20041;-72
2022/04/27 00:55:16;;;;;;;67.75;30.95;;;4.30;99.90;;;;;;5052358;28;20025;-74
2022/04/27 00:57:46;;;;;;;62.65;32.63;;;4.30;99.90;;;;;;5053176;28;20025;-73
2022/04/27 01:00:14;;;;;;;65.13;31.55;;;4.30;99.90;;;;;;5052945;28;20029;-73
2022/04/27 01:02:42;;;;;;;58.47;30.95;;;4.30;99.90;;;;;;5054226;28;20486;-74
2022/04/27 01:05:09;;;;;;;62.13;30.83;;;4.30;99.90;;;;;;5052958;28;20025;-74
2022/04/27 01:07:40;;;;;;;69.82;33.60;;;4.30;99.90;;;;;;5054095;28;20032;-73
2022/04/27 01:10:08;;;;;;;65.03;30.85;;;4.30;99.90;;;;;;5054186;28;20020;-74
2022/04/27 01:12:35;;;;;;;61.38;32.38;;;4.30;99.90;;;;;;5053913;28;20048;-73
2022/04/27 01:15:02;;;;;;;66.25;33.25;;;4.30;99.90;;;;;;5052432;28;20382;-73
2022/04/27 01:17:28;;;;;;;61.80;30.95;;;4.20;99.90;;;;;;5054074;28;20098;-75
2022/04/27 01:19:54;;;;;;;57.38;31.48;;;4.20;99.90;;;;;;5053895;28;20021;-75
2022/04/27 01:22:21;;;;;;;73.18;38.63;;;4.20;99.90;;;;;;5054004;28;20013;-72
2022/04/27 01:24:50;;;;;;;74.22;40.88;;;4.20;99.90;;;;;;5053883;28;20094;-73
2022/04/27 01:27:16;;;;;;;71.13;37.95;;;4.10;99.90;;;;;;5052649;28;20025;-75
2022/04/27 01:29:42;;;;;;;62.42;31.70;;;4.20;99.90;;;;;;5053726;28;20033;-73
2022/04/27 01:32:08;;;;;;;51.45;25.27;;;4.20;99.90;;;;;;5052326;28;20395;-73
2022/04/27 01:34:34;;;;;;;42.58;23.08;;;4.30;99.90;;;;;;5052127;28;20059;-74
2022/04/27 01:39:46;;;;;;;51.78;27.48;;;4.40;99.90;;;;;;5048983;28;20120;-72
2022/04/27 01:42:14;;;;;;;62.20;31.38;;;4.40;99.90;;;;;;5051760;28;20427;-73
2022/04/27 01:44:39;;;;;;;62.78;29.00;;;4.40;99.90;;;;;;5035878;28;20033;-75
2022/04/27 01:47:08;;;;;;;57.70;31.23;;;4.40;99.90;;;;;;5053740;28;20418;-74
2022/04/27 01:49:34;;;;;;;56.65;30.08;;;4.50;99.90;;;;;;5053363;28;20021;-72
2022/04/27 01:54:45;;;;;;;57.90;29.13;;;4.50;99.90;;;;;;5053301;28;20032;-74
2022/04/27 01:57:12;;;;;;;44.03;24.25;;;4.50;99.90;;;;;;5051508;28;20024;-74
2022/04/27 01:59:41;;;;;;;56.55;28.23;;;4.50;99.90;;;;;;5050886;28;20478;-74
2022/04/27 02:02:08;;;;;;;65.30;33.45;;;4.50;99.90;;;;;;5033367;28;20029;-72
2022/04/27 02:04:35;;;;;;;59.95;32.40;;;4.40;99.90;;;;;;5051287;28;20095;-74
2022/04/27 02:07:01;;;;;;;54.17;31.52;;;4.30;99.90;;;;;;5049645;28;20040;-72
2022/04/27 02:09:27;;;;;;;53.95;29.30;;;4.30;99.90;;;;;;5049904;28;20025;-74
2022/04/27 02:11:53;;;;;;;54.50;28.85;;;4.30;99.90;;;;;;5050891;28;20041;-75
2022/04/27 02:14:19;;;;;;;53.33;30.70;;;4.20;99.90;;;;;;5049722;28;20399;-74
2022/04/27 02:16:45;;;;;;;56.72;29.00;;;4.20;99.90;;;;;;5050942;28;20044;-72
2022/04/27 02:19:11;;;;;;;53.55;28.95;;;4.20;99.90;;;;;;5051041;28;20021;-73
2022/04/27 02:21:36;;;;;;;60.88;30.60;;;4.10;99.90;;;;;;5052091;28;20021;-72
2022/04/27 02:24:02;;;;;;;52.42;27.95;;;4.10;99.90;;;;;;5052958;28;20021;-72
2022/04/27 02:26:28;;;;;;;54.20;29.00;;;4.10;99.90;;;;;;5052958;28;20021;-72
2022/04/27 02:28:54;;;;;;;49.17;26.20;;;4.10;99.90;;;;;;5052982;28;20032;-75
2022/04/27 02:31:20;;;;;;;47.75;25.77;;;4.00;99.90;;;;;;5051567;28;20104;-74
2022/04/27 02:33:46;;;;;;;48.88;25.27;;;3.90;99.90;;;;;;5052897;28;20025;-73
2022/04/27 02:36:12;;;;;;;47.88;26.40;;;3.90;99.90;;;;;;5053050;28;20017;-73
2022/04/27 02:38:38;;;;;;;45.78;24.80;;;3.90;99.90;;;;;;5051679;28;20078;-73
2022/04/27 02:41:04;;;;;;;39.85;22.98;;;3.80;99.90;;;;;;5051500;28;20478;-72
2022/04/27 02:43:31;;;;;;;38.35;20.15;;;3.80;99.90;;;;;;5051981;28;20029;-73
2022/04/27 02:45:58;;;;;;;29.95;16.45;;;3.70;99.90;;;;;;5052927;28;20051;-73
2022/04/27 02:48:24;;;;;;;29.52;17.17;;;3.70;99.90;;;;;;5052450;28;20471;-73
2022/04/27 02:53:37;;;;;;;28.20;15.45;;;3.60;99.90;;;;;;5052706;28;20068;-74
2022/04/27 02:56:04;;;;;;;29.33;17.05;;;3.50;99.90;;;;;;5052718;28;20472;-72
2022/04/27 02:58:30;;;;;;;32.25;17.10;;;3.40;99.90;;;;;;5052622;28;20029;-73
2022/04/27 03:00:56;;;;;;;28.25;17.30;;;3.40;99.90;;;;;;5052682;28;20358;-74
2022/04/27 03:03:21;;;;;;;36.47;18.25;;;3.40;99.90;;;;;;5052676;28;20036;-75
2022/04/27 03:05:47;;;;;;;43.65;19.77;;;3.30;99.90;;;;;;5051301;28;20029;-75
2022/04/27 03:08:14;;;;;;;87.90;22.63;;;3.20;99.90;;;;;;5051330;28;20399;-72
2022/04/27 03:10:39;;;;;;;59.17;20.55;;;3.20;99.90;;;;;;5051262;28;20025;-72
2022/04/27 03:13:05;;;;;;;68.22;23.15;;;3.10;99.90;;;;;;5055885;28;20457;-74
2022/04/27 03:15:32;;;;;;;41.17;19.63;;;3.10;99.90;;;;;;5054880;28;20051;-74
2022/04/27 03:20:41;;;;;;;31.08;17.40;;;2.90;99.90;;;;;;5056464;28;20036;-72
2022/04/27 03:23:07;;;;;;;37.58;20.65;;;2.90;99.90;;;;;;5056205;28;20479;-74
2022/04/27 03:25:33;;;;;;;53.15;20.38;;;2.80;99.90;;;;;;5054853;28;20028;-72
2022/04/27 03:27:58;;;;;;;38.20;20.20;;;2.80;99.90;;;;;;5054810;28;20036;-74
2022/04/27 03:30:24;;;;;;;37.70;20.38;;;2.80;99.90;;;;;;5055966;28;20057;-72
2022/04/27 03:32:50;;;;;;;41.05;21.63;;;2.80;99.90;;;;;;5056041;28;20033;-74
2022/04/27 03:35:15;;;;;;;40.78;20.15;;;2.80;99.90;;;;;;5054689;28;20029;-71
2022/04/27 03:37:41;;;;;;;34.78;17.77;;;2.80;99.90;;;;;;5055868;28;20079;-74
2022/04/27 03:40:09;;;;;;;38.10;17.92;;;2.80;99.90;;;;;;5054639;28;20063;-73
2022/04/27 03:42:35;;;;;;;38.78;20.05;;;2.80;99.90;;;;;;5055782;28;20021;-72
2022/04/27 03:45:00;;;;;;;33.70;18.00;;;2.80;99.90;;;;;;5055860;28;20025;-74
2022/04/27 03:47:26;;;;;;;35.25;17.17;;;2.80;99.90;;;;;;5055618;28;20335;-71
2022/04/27 03:49:52;;;;;;;34.33;17.48;;;2.80;99.90;;;;;;5055597;28;20486;-72
2022/04/27 03:52:18;;;;;;;34.25;17.75;;;2.90;99.90;;;;;;5054258;28;20050;-74
2022/04/27 03:54:43;;;;;;;33.45;18.90;;;2.80;99.90;;;;;;5055691;28;20390;-74
2022/04/27 03:57:09;;;;;;;27.40;16.17;;;2.80;99.90;;;;;;5055459;28;20036;-73
2022/04/27 03:59:35;;;;;;;27.08;17.13;;;2.80;99.90;;;;;;5054228;28;20027;-74
2022/04/27 04:02:00;;;;;;;22.33;13.68;;;2.90;99.90;;;;;;5055486;28;20031;-73
2022/04/27 04:04:26;;;;;;;26.52;15.73;;;3.00;99.90;;;;;;5055192;28;20051;-71
2022/04/27 04:06:51;;;;;;;22.35;14.38;;;3.10;99.90;;;;;;5055042;28;20491;-74
2022/04/27 04:09:17;;;;;;;18.58;13.18;;;3.20;99.90;;;;;;5051074;28;20078;-74
2022/04/27 04:11:42;;;;;;;20.98;13.43;;;3.30;99.90;;;;;;5034881;28;20025;-74
2022/04/27 04:14:08;;;;;;;25.70;14.48;;;3.30;99.90;;;;;;5034201;28;20407;-72
2022/04/27 04:16:33;;;;;;;22.48;12.30;;;3.30;99.90;;;;;;5049355;28;20088;-74
2022/04/27 04:18:59;;;;;;;20.52;13.23;;;3.50;99.90;;;;;;5034208;28;20061;-74
2022/04/27 04:21:26;;;;;;;21.15;12.75;;;3.70;99.90;;;;;;5034489;28;20053;-72
2022/04/27 04:23:51;;;;;;;26.50;15.02;;;3.70;99.90;;;;;;5068326;28;20044;-72
2022/04/27 04:29:01;;;;;;;25.45;16.13;;;3.90;99.90;;;;;;5053760;28;20032;-72
2022/04/27 04:31:27;;;;;;;27.38;15.15;;;4.00;99.90;;;;;;5053636;28;20041;-71
2022/04/27 04:33:52;;;;;;;28.50;16.02;;;4.10;99.90;;;;;;5053929;28;20044;-75
2022/04/27 04:36:18;;;;;;;28.85;16.52;;;4.20;99.90;;;;;;5049668;28;20060;-74
2022/04/27 04:38:43;;;;;;;24.35;15.15;;;4.30;99.90;;;;;;5042903;28;20029;-74
2022/04/27 04:41:09;;;;;;;26.77;15.43;;;4.40;99.90;;;;;;5033565;28;20036;-73
2022/04/27 04:43:34;;;;;;;28.67;15.30;;;4.50;99.90;;;;;;5040122;28;20040;-74
2022/04/27 04:46:00;;;;;;;26.42;15.35;;;4.40;99.90;;;;;;5037128;28;20029;-74
2022/04/27 04:48:26;;;;;;;29.13;15.38;;;4.40;99.90;;;;;;5042010;28;20036;-74
2022/04/27 04:50:51;;;;;;;49.35;22.52;;;4.40;99.90;;;;;;5033629;28;20087;-73
2022/04/27 04:53:19;;;;;;;31.27;16.30;;;4.50;99.90;;;;;;5062943;28;20094;-74
2022/04/27 04:55:44;;;;;;;26.80;15.00;;;4.60;99.90;;;;;;5073367;28;20041;-73
2022/04/27 04:58:10;;;;;;;32.70;15.50;;;4.70;99.90;;;;;;5046534;28;20028;-74
2022/04/27 05:00:37;;;;;;;33.75;17.92;;;4.90;99.90;;;;;;5042276;28;20475;-74
2022/04/27 05:03:03;;;;;;;34.03;15.65;;;5.00;99.90;;;;;;5049663;28;20035;-73
2022/04/27 05:05:28;;;;;;;36.47;17.27;;;5.20;99.90;;;;;;5053576;28;20120;-74
2022/04/27 05:07:54;;;;;;;29.77;14.43;;;5.40;99.90;;;;;;5053400;28;20029;-74
2022/04/27 05:10:19;;;;;;;22.42;10.15;;;5.50;99.90;;;;;;5053070;28;20045;-72
2022/04/27 05:12:45;;;;;;;19.80;10.23;;;5.80;99.90;;;;;;5052206;28;20064;-72
2022/04/27 05:15:14;;;;;;;15.23;9.55;;;5.90;99.90;;;;;;5051370;28;20044;-72
2022/04/27 05:17:40;;;;;;;19.20;10.80;;;6.10;99.90;;;;;;5051313;28;20024;-72
2022/04/27 05:20:07;;;;;;;19.85;10.93;;;6.20;99.90;;;;;;5051384;28;20068;-72
2022/04/27 05:22:40;;;;;;;19.85;10.55;;;6.40;99.90;;;;;;5051640;28;20037;-72
2022/04/27 05:25:08;;;;;;;18.10;11.02;;;6.60;99.90;;;;;;5051388;28;20033;-72
2022/04/27 05:27:37;;;;;;;19.60;12.07;;;6.70;99.90;;;;;;5052960;28;20029;-73
2022/04/27 05:32:49;;;;;;;21.63;13.05;;;7.10;99.90;;;;;;5052824;28;20083;-74
2022/04/27 05:35:15;;;;;;;19.48;11.45;;;7.20;99.90;;;;;;5041823;28;20061;-72
2022/04/27 05:37:41;;;;;;;16.10;10.63;;;7.40;99.90;;;;;;5033569;28;20029;-74
2022/04/27 05:40:08;;;;;;;20.25;12.35;;;7.60;99.90;;;;;;5033578;28;20032;-74
2022/04/27 05:42:36;;;;;;;19.58;12.20;;;7.80;99.90;;;;;;5032477;28;20032;-73
2022/04/27 05:45:06;;;;;;;18.98;11.60;;;7.90;99.90;;;;;;5037176;28;20021;-73
2022/04/27 05:47:31;;;;;;;18.75;11.60;;;8.10;99.90;;;;;;5050947;28;20044;-73
2022/04/27 05:49:57;;;;;;;19.33;10.82;;;8.20;99.90;;;;;;5050967;28;20021;-73
2022/04/27 05:52:22;;;;;;;19.17;12.35;;;8.30;99.90;;;;;;5051971;28;20035;-74
2022/04/27 05:54:48;;;;;;;22.50;13.25;;;8.40;99.90;;;;;;5051631;28;20017;-74
2022/04/27 05:57:14;;;;;;;21.35;13.18;;;8.60;99.90;;;;;;5050806;28;20470;-73
2022/04/27 05:59:40;;;;;;;16.05;10.75;;;8.60;99.90;;;;;;5050873;28;20028;-73
2022/04/27 06:02:07;;;;;;;17.00;10.27;;;8.70;99.90;;;;;;5050014;28;20033;-74
2022/04/27 06:04:32;;;;;;;19.23;11.95;;;8.70;97.90;;;;;;5051273;28;20070;-74
2022/04/27 06:06:58;;;;;;;14.40;10.05;;;8.70;97.00;;;;;;5051205;28;20021;-73
2022/04/27 06:09:23;;;;;;;17.27;10.60;;;8.70;97.50;;;;;;5051168;28;20075;-74
2022/04/27 06:11:49;;;;;;;19.40;11.23;;;8.90;95.30;;;;;;5051398;28;20033;-73
2022/04/27 06:14:14;;;;;;;13.80;9.57;;;9.00;94.10;;;;;;5050999;28;20096;-73
2022/04/27 06:16:40;;;;;;;15.90;9.80;;;9.10;94.30;;;;;;5050712;28;20052;-72
2022/04/27 06:19:05;;;;;;;15.32;9.80;;;9.10;93.70;;;;;;5049733;28;20370;-74
2022/04/27 06:21:32;;;;;;;14.40;9.35;;;9.30;95.80;;;;;;5042526;28;20022;-74
2022/04/27 06:23:59;;;;;;;14.68;9.95;;;9.30;93.60;;;;;;5030864;28;20025;-74
2022/04/27 06:26:26;;;;;;;17.45;10.90;;;9.50;92.70;;;;;;5031844;28;20495;-73
2022/04/27 06:28:52;;;;;;;15.55;9.15;;;9.70;89.90;;;;;;5032766;28;20025;-74
2022/04/27 06:31:18;;;;;;;14.10;9.52;;;9.70;87.90;;;;;;5031950;28;20037;-73
2022/04/27 06:33:44;;;;;;;14.73;9.50;;;9.70;85.40;;;;;;5031914;28;20037;-74
2022/04/27 06:36:10;;;;;;;18.83;11.00;;;9.80;87.80;;;;;;5030504;28;20057;-73
2022/04/27 06:38:35;;;;;;;17.33;11.27;;;9.90;86.90;;;;;;5032007;28;20042;-73
2022/04/27 06:41:02;;;;;;;13.18;8.75;;;10.00;86.70;;;;;;5031891;28;20502;-73
2022/04/27 06:43:28;;;;;;;19.42;10.48;;;10.00;85.40;;;;;;5032223;28;20061;-73
2022/04/27 06:45:54;;;;;;;16.80;10.55;;;10.10;84.90;;;;;;5031698;28;20022;-73
2022/04/27 06:48:19;;;;;;;12.65;7.75;;;10.20;83.00;;;;;;5037090;28;20034;-73
2022/04/27 06:50:45;;;;;;;12.57;9.20;;;10.30;82.30;;;;;;5036963;28;20025;-73
2022/04/27 06:53:10;;;;;;;11.38;8.48;;;10.50;82.60;;;;;;5036920;28;20112;-75
2022/04/27 06:55:37;;;;;;;12.20;8.48;;;10.70;83.40;;;;;;5036828;28;20485;-74
2022/04/27 06:58:03;;;;;;;13.98;9.57;;;10.90;81.60;;;;;;5036870;28;20034;-74
2022/04/27 07:00:29;;;;;;;13.82;9.65;;;10.80;79.70;;;;;;5036829;28;20037;-73
2022/04/27 07:02:55;;;;;;;12.07;7.88;;;11.00;79.40;;;;;;5035265;28;20495;-74
2022/04/27 07:05:24;;;;;;;13.13;9.40;;;10.80;77.80;;;;;;5036688;28;20543;-74
2022/04/27 07:07:49;;;;;;;13.98;9.57;;;10.90;80.20;;;;;;5036638;28;20028;-74
2022/04/27 07:10:17;;;;;;;12.77;7.80;;;11.00;78.90;;;;;;5036685;28;20108;-74
2022/04/27 07:12:43;;;;;;;14.30;9.40;;;11.00;78.60;;;;;;5035356;28;20037;-73
2022/04/27 07:15:09;;;;;;;13.82;9.27;;;11.00;80.40;;;;;;5035168;28;20045;-74
2022/04/27 07:17:34;;;;;;;12.88;9.05;;;10.70;79.50;;;;;;5035186;28;20025;-73
2022/04/27 07:20:00;;;;;;;14.55;10.15;;;10.60;80.00;;;;;;5036600;28;20383;-74
2022/04/27 07:22:25;;;;;;;12.00;8.88;;;10.60;82.10;;;;;;5035120;28;20025;-74
2022/04/27 07:24:51;;;;;;;15.40;9.35;;;10.70;81.20;;;;;;5035264;28;20021;-74
2022/04/27 07:27:17;;;;;;;15.73;9.43;;;10.80;80.90;;;;;;5036331;28;20586;-74
2022/04/27 07:29:43;;;;;;;17.20;10.15;;;10.70;80.90;;;;;;5035096;28;20424;-73
2022/04/27 07:32:09;;;;;;;14.02;9.05;;;10.80;80.50;;;;;;5036200;28;20044;-74
2022/04/27 07:34:34;;;;;;;14.65;10.00;;;10.90;80.40;;;;;;5036349;28;20454;-74
2022/04/27 07:37:02;;;;;;;18.58;11.32;;;11.20;82.00;;;;;;5034978;28;20036;-74
2022/04/27 07:39:28;;;;;;;16.77;9.82;;;11.40;78.90;;;;;;5036264;28;20448;-74
2022/04/27 07:41:54;;;;;;;16.88;11.13;;;11.50;79.30;;;;;;5036083;28;20061;-74
2022/04/27 07:44:19;;;;;;;18.23;10.65;;;11.60;75.70;;;;;;5036133;28;20025;-74
2022/04/27 07:46:48;;;;;;;13.93;9.25;;;11.70;76.30;;;;;;5035990;28;20033;-73
2022/04/27 07:49:16;;;;;;;15.40;9.63;;;11.80;76.60;;;;;;5034541;28;20064;-73
2022/04/27 07:51:41;;;;;;;15.27;9.90;;;11.90;73.90;;;;;;5035806;28;20057;-73
2022/04/27 07:54:07;;;;;;;10.93;7.90;;;11.90;72.90;;;;;;5034683;28;20053;-74
2022/04/27 07:56:33;;;;;;;15.75;9.70;;;12.10;73.20;;;;;;5034443;28;20025;-74
2022/04/27 07:58:59;;;;;;;13.35;9.38;;;12.00;73.10;;;;;;5033480;28;20035;-74
2022/04/27 08:01:24;;;;;;;15.23;10.50;;;11.90;71.00;;;;;;5035596;28;20026;-73
2022/04/27 08:03:50;;;;;;;13.95;9.63;;;12.00;72.70;;;;;;5035608;28;20021;-74
2022/04/27 08:06:16;;;;;;;17.05;10.30;;;12.10;74.80;;;;;;5035484;28;20479;-74
2022/04/27 08:08:41;;;;;;;18.13;11.82;;;12.30;74.00;;;;;;5035649;28;20018;-73
2022/04/27 08:11:07;;;;;;;16.83;10.13;;;12.40;72.80;;;;;;5035565;28;20026;-73
2022/04/27 08:13:33;;;;;;;15.15;10.98;;;12.20;71.40;;;;;;5034165;28;20502;-73
2022/04/27 08:15:59;;;;;;;15.35;8.88;;;12.20;71.10;;;;;;5035192;28;20526;-73
2022/04/27 08:18:25;;;;;;;16.95;9.55;;;12.30;71.40;;;;;;5035271;28;20095;-74
2022/04/27 08:23:36;;;;;;;15.93;10.02;;;12.40;70.60;;;;;;5035336;28;20044;-73
2022/04/27 08:26:04;;;;;;;13.35;9.00;;;12.30;69.20;;;;;;5035260;28;20020;-74
2022/04/27 08:28:30;;;;;;;13.70;9.70;;;12.30;69.30;;;;;;5035234;28;20475;-73
2022/04/27 08:30:56;;;;;;;15.60;10.05;;;12.30;69.90;;;;;;5033967;28;20041;-74
2022/04/27 08:33:22;;;;;;;12.77;8.77;;;12.50;68.70;;;;;;5033783;28;20457;-74
2022/04/27 08:35:48;;;;;;;13.80;10.27;;;12.60;67.20;;;;;;5033754;28;20018;-74
2022/04/27 08:38:15;;;;;;;16.88;10.45;;;12.60;67.40;;;;;;5035030;28;20036;-74
2022/04/27 08:40:45;;;;;;;16.30;10.10;;;12.70;69.50;;;;;;5035045;28;20021;-74
2022/04/27 08:43:12;;;;;;;14.90;8.57;;;12.50;67.70;;;;;;5035283;28;20048;-73
2022/04/27 08:45:42;;;;;;;14.07;10.45;;;12.60;67.20;;;;;;5034728;28;20018;-74
2022/04/27 08:48:09;;;;;;;14.20;9.77;;;12.50;67.20;;;;;;5034925;28;20392;-74
2022/04/27 08:50:35;;;;;;;14.80;9.70;;;12.00;66.90;;;;;;5034898;28;20024;-74
2022/04/27 08:53:01;;;;;;;13.52;8.75;;;11.90;69.10;;;;;;5034782;28;20025;-75
2022/04/27 08:55:27;;;;;;;14.77;10.00;;;12.00;68.50;;;;;;5034835;28;20088;-74
2022/04/27 08:57:54;;;;;;;14.15;10.30;;;11.90;68.40;;;;;;5034728;28;20029;-74
2022/04/27 09:00:22;;;;;;;15.40;9.88;;;11.90;67.70;;;;;;5034364;28;20021;-73
2022/04/27 09:02:52;;;;;;;14.75;10.38;;;11.90;69.20;;;;;;5033093;28;20534;-73
2022/04/27 09:05:19;;;;;;;15.15;10.40;;;12.00;69.30;;;;;;5034532;28;20365;-74
2022/04/27 09:07:50;;;;;;;13.27;9.85;;;11.80;68.80;;;;;;5034396;28;20026;-74
2022/04/27 09:10:22;;;;;;;17.13;11.38;;;11.90;71.60;;;;;;5034062;28;20122;-73
2022/04/27 09:12:55;;;;;;;19.05;11.30;;;11.90;71.90;;;;;;5034352;28;20034;-73
2022/04/27 09:15:22;;;;;;;15.70;11.02;;;11.90;73.90;;;;;;5034216;28;20603;-74
2022/04/27 09:20:47;;;;;;;;;;;11.60;72.50;;;;;;5054545;28;20040;-73
2022/04/27 09:23:28;;;;;;;15.23;10.38;;;11.50;72.70;;;;;;5052494;28;19916;-74
2022/04/27 09:26:00;;;;;;;16.90;12.93;;;11.40;73.00;;;;;;5035904;28;20406;-74
2022/04/27 09:28:29;;;;;;;20.50;11.75;;;11.40;72.00;;;;;;5054081;28;20379;-74
2022/04/27 09:30:55;;;;;;;18.52;11.57;;;11.50;73.90;;;;;;5036246;28;20021;-74
2022/04/27 09:33:39;;;;;;;18.02;10.15;;;11.60;71.90;;;;;;5052476;28;20048;-75
2022/04/27 09:36:23;;;;;;;13.90;9.82;;;11.70;70.30;;;;;;5052477;28;20028;-74
2022/04/27 09:38:50;;;;;;;18.83;11.73;;;11.70;67.60;;;;;;5052470;28;20506;-74
2022/04/27 09:41:36;;;;;;;16.55;10.88;;;11.60;69.00;;;;;;5052545;28;20430;-74
2022/04/27 09:44:02;;;;;;;16.90;10.98;;;11.50;70.20;;;;;;5052477;28;20028;-74
2022/04/27 09:46:27;;;;;;;13.30;9.93;;;11.60;71.40;;;;;;5052366;28;20539;-74
2022/04/27 09:49:02;;;;;;;14.57;9.23;;;11.70;70.20;;;;;;5053669;28;20025;-75
2022/04/27 09:51:28;;;;;;;15.65;10.18;;;11.70;68.50;;;;;;5053591;28;20017;-74
2022/04/27 09:53:56;;;;;;;12.10;8.85;;;11.80;68.60;;;;;;5053465;28;20424;-74
2022/04/27 09:56:24;;;;;;;11.57;9.02;;;11.90;68.30;;;;;;5053443;28;20437;-74
2022/04/27 09:58:50;;;;;;;14.65;8.13;;;12.00;67.20;;;;;;5048396;28;20376;-74
2022/04/27 10:01:17;;;;;;;14.95;10.05;;;12.00;66.40;;;;;;5042239;28;20116;-73
2022/04/27 10:03:48;;;;;;;14.77;9.77;;;12.00;67.30;;;;;;5042358;28;20021;-72
2022/04/27 10:06:15;;;;;;;13.45;8.95;;;12.00;67.30;;;;;;5042249;28;20032;-72
2022/04/27 10:08:41;;;;;;;16.58;10.50;;;12.00;68.50;;;;;;5046408;28;20022;-72
2022/04/27 10:11:07;;;;;;;14.63;9.32;;;12.00;68.50;;;;;;5040171;28;20025;-72
2022/04/27 10:13:33;;;;;;;13.73;8.73;;;12.10;67.30;;;;;;5042480;28;20371;-72
2022/04/27 10:15:59;;;;;;;13.75;8.90;;;12.00;66.50;;;;;;5042867;28;20044;-72
2022/04/27 10:18:25;;;;;;;12.05;8.48;;;12.10;65.50;;;;;;5047071;28;20033;-71
2022/04/27 10:20:51;;;;;;;14.20;9.20;;;12.10;65.40;;;;;;5052397;28;20096;-72
2022/04/27 10:23:27;;;;;;;11.73;8.60;;;12.20;65.50;;;;;;5035242;28;20558;-74
2022/04/27 10:26:29;;;;;;;11.15;8.25;;;12.30;67.60;;;;;;5032198;28;20026;-74
2022/04/27 10:28:56;;;;;;;13.43;9.00;;;12.20;64.00;;;;;;5030817;28;20022;-73
2022/04/27 10:31:40;;;;;;;9.55;7.70;;;12.20;65.40;;;;;;5031745;28;20124;-73
2022/04/27 10:34:23;;;;;;;11.63;8.15;;;12.20;65.00;;;;;;5031261;28;20033;-72
2022/04/27 10:36:49;;;;;;;;;;;12.30;64.50;;;;;;5032311;28;20042;-73
2022/04/27 10:39:17;;;;;;;11.85;7.85;;;12.30;62.70;;;;;;5036372;28;20366;-72
2022/04/27 10:42:15;;;;;;;11.57;7.32;;;12.20;61.80;;;;;;5051771;28;20070;-73
2022/04/27 10:44:58;;;;;;;13.02;7.70;;;12.30;63.40;;;;;;5048711;28;20021;-72
2022/04/27 10:47:24;;;;;;;12.63;8.02;;;12.50;63.00;;;;;;5051240;28;20036;-73
2022/04/27 10:50:18;;;;;;;12.38;8.25;;;12.60;62.50;;;;;;5048714;28;20041;-72
2022/04/27 10:52:50;;;;;;;9.90;7.78;;;12.80;62.50;;;;;;5051671;28;20044;-73
2022/04/27 10:55:34;;;;;;;;;;;12.80;60.40;;;;;;5050701;28;20471;-73
2022/04/27 10:58:32;;;;;;;9.55;8.07;;;12.90;60.80;;;;;;5051425;28;19912;-73
2022/04/27 11:00:58;;;;;;;11.02;7.35;;;12.90;61.70;;;;;;5051753;28;20493;-73
2022/04/27 11:03:31;;;;;;;10.25;7.60;;;12.90;62.70;;;;;;5050133;28;20037;-73
2022/04/27 11:05:58;;;;;;;10.25;7.32;;;13.00;63.40;;;;;;5050582;28;20029;-73
2022/04/27 11:08:36;;;;;;;10.85;7.55;;;13.40;64.00;;;;;;5050860;28;20037;-72
2022/04/27 11:11:09;;;;;;;10.20;6.90;;;13.80;63.30;;;;;;5050032;28;20025;-73
2022/04/27 11:13:37;;;;;;;9.68;6.82;;;13.60;60.10;;;;;;5050538;28;20102;-73
2022/04/27 11:16:10;;;;;;;10.82;7.40;;;13.30;60.50;;;;;;5050330;28;20041;-73
2022/04/27 11:18:56;;;;;;;10.93;8.13;;;13.60;62.20;;;;;;5050455;28;20090;-73
2022/04/27 11:21:29;;;;;;;8.60;6.45;;;13.40;61.20;;;;;;5051027;28;20094;-73
2022/04/27 11:23:57;;;;;;;10.30;6.65;;;13.00;62.10;;;;;;5050677;28;20398;-73
2022/04/27 11:26:23;;;;;;;9.05;7.18;;;12.80;62.90;;;;;;5050769;28;20083;-73
2022/04/27 11:28:49;;;;;;;11.93;7.32;;;12.70;64.70;;;;;;5050354;28;20037;-73
2022/04/27 11:31:16;;;;;;;9.60;7.25;;;12.60;66.00;;;;;;5050632;28;20463;-73
2022/04/27 11:33:41;;;;;;;9.85;7.07;;;12.60;66.90;;;;;;5052934;28;20454;-73
2022/04/27 11:36:19;;;;;;;11.00;7.35;;;12.50;65.80;;;;;;5052758;28;20108;-73
2022/04/27 11:38:45;;;;;;;11.02;7.95;;;12.60;67.10;;;;;;5054007;28;20091;-73
2022/04/27 11:41:15;;;;;;;10.57;7.25;;;12.40;66.40;;;;;;5054140;28;20017;-73
2022/04/27 11:43:42;;;;;;;11.30;7.28;;;12.30;66.50;;;;;;5052990;28;20037;-73
2022/04/27 11:46:09;;;;;;;12.35;7.18;;;12.30;65.10;;;;;;5054104;28;20025;-72
2022/04/27 11:48:34;;;;;;;13.80;7.13;;;12.30;65.50;;;;;;5053843;28;20047;-72
2022/04/27 11:51:02;;;;;;;9.32;6.30;;;12.40;64.50;;;;;;5049962;28;20552;-72
2022/04/27 11:53:31;;;;;;;8.10;6.40;;;12.50;63.80;;;;;;5043369;28;20523;-72
2022/04/27 11:55:58;;;;;;;7.93;5.63;;;12.50;63.00;;;;;;5044579;28;20024;-72
2022/04/27 11:58:28;;;;;;;8.27;6.07;;;12.50;61.50;;;;;;5036065;28;20551;-72
2022/04/27 12:00:56;;;;;;;7.00;5.30;;;12.70;61.50;;;;;;5033959;28;20601;-72
2022/04/27 12:03:23;;;;;;;6.18;4.78;;;12.50;60.90;;;;;;5031989;28;20068;-72
2022/04/27 12:05:51;;;;;;;10.00;5.95;;;12.90;61.90;;;;;;5034118;28;20048;-72
2022/04/27 12:08:21;;;;;;;7.70;5.10;;;13.00;59.80;;;;;;5032338;28;20029;-72
2022/04/27 12:10:49;;;;;;;8.18;6.35;;;13.00;60.00;;;;;;5051169;28;20043;-72
2022/04/27 12:13:16;;;;;;;8.30;5.43;;;13.10;60.20;;;;;;5051506;28;20134;-72
2022/04/27 12:15:47;;;;;;;12.38;6.85;;;13.10;60.30;;;;;;5052482;28;20045;-73
2022/04/27 12:18:26;;;;;;;13.43;7.40;;;13.20;60.90;;;;;;5052727;28;20033;-72
2022/04/27 12:20:55;;;;;;;7.97;5.60;;;13.20;61.20;;;;;;5053673;28;20036;-72
2022/04/27 12:23:25;;;;;;;9.65;6.00;;;13.40;60.80;;;;;;5052083;28;20475;-72
2022/04/27 12:25:55;;;;;;;8.30;5.65;;;13.60;60.80;;;;;;5053050;28;20024;-73
2022/04/27 12:28:26;;;;;;;6.85;5.25;;;13.60;59.40;;;;;;5051990;28;20109;-72
2022/04/27 12:30:57;;;;;;;6.43;5.65;;;13.70;60.00;;;;;;5053323;28;20102;-72
2022/04/27 12:33:25;;;;;;;9.18;7.10;;;13.70;60.20;;;;;;5053287;28;20037;-73
2022/04/27 12:38:37;;;;;;;15.68;9.45;;;13.50;58.80;;;;;;5034319;28;20144;-72
2022/04/27 12:41:04;;;;;;;9.60;6.05;;;13.60;58.50;;;;;;5042223;28;20466;-72
2022/04/27 12:43:32;;;;;;;7.30;5.15;;;13.70;58.40;;;;;;5041683;28;20069;-72
2022/04/27 12:46:10;;;;;;;8.50;5.18;;;13.80;58.80;;;;;;5041038;28;20496;-72
2022/04/27 12:48:36;;;;;;;8.52;5.13;;;13.90;57.10;;;;;;5033157;28;20033;-72
2022/04/27 12:51:06;;;;;;;6.60;4.90;;;14.00;57.20;;;;;;5031693;28;20025;-73
2022/04/27 12:53:34;;;;;;;4.95;4.45;;;14.10;57.00;;;;;;5031923;28;20138;-73
2022/04/27 12:56:12;;;;;;;9.38;5.72;;;14.10;56.10;;;;;;5032158;28;20022;-73
2022/04/27 12:58:38;;;;;;;9.13;5.70;;;14.20;57.60;;;;;;5033171;28;20034;-72
2022/04/27 13:01:04;;;;;;;9.95;5.82;;;14.20;58.10;;;;;;5031006;28;20487;-73
2022/04/27 13:03:31;;;;;;;8.50;5.97;;;14.20;59.70;;;;;;5032816;28;20048;-73
2022/04/27 13:05:57;;;;;;;8.55;6.38;;;14.20;59.60;;;;;;5031530;28;20364;-73